Terminal Aerodrome Forecast
Issued by NWS Cleveland, OH

Home | Current Version | Previous Version | Graphics & Text | Print | Product List | Glossary On
Versions: 1 2 3 4 5 6 7 8 9 10 11 12 13 14 15 16 17 18 19 20 21 22 23
000
FTUS41 KCLE 230539
TAFERI
TAF
KERI 230539Z 2306/2406 05007KT P6SM OVC015
     FM231400 16015G25KT 5SM -RA OVC015
     FM231800 18015G25KT 5SM RA BR OVC007
     FM232100 22012KT 3SM RA BR OVC003
     FM232200 22012KT P6SM OVC003
     FM240400 26009KT P6SM OVC010=

USA.gov is the U.S. government's official web portal to all federal, state and local government web resources and services.